sensor_id;sensor_type;location;lat;lon;timestamp;P1;durP1;ratioP1;P2;durP2;ratioP2
65583;SDS011;62116;43.582;1.470;2023-03-04T00:00:04;44.03;;;22.35;;
65583;SDS011;62116;43.582;1.470;2023-03-04T00:02:30;45.10;;;21.60;;
65583;SDS011;62116;43.582;1.470;2023-03-04T00:04:55;46.35;;;23.58;;
65583;SDS011;62116;43.582;1.470;2023-03-04T00:07:21;45.83;;;22.65;;
65583;SDS011;62116;43.582;1.470;2023-03-04T00:09:46;46.47;;;22.50;;
65583;SDS011;62116;43.582;1.470;2023-03-04T00:12:12;48.63;;;22.05;;
65583;SDS011;62116;43.582;1.470;2023-03-04T00:14:37;47.40;;;22.52;;
65583;SDS011;62116;43.582;1.470;2023-03-04T00:17:02;49.33;;;22.60;;
65583;SDS011;62116;43.582;1.470;2023-03-04T00:19:29;48.20;;;22.40;;
65583;SDS011;62116;43.582;1.470;2023-03-04T00:21:55;45.60;;;21.75;;
65583;SDS011;62116;43.582;1.470;2023-03-04T00:24:21;39.05;;;21.05;;
65583;SDS011;62116;43.582;1.470;2023-03-04T00:26:46;42.97;;;21.88;;
65583;SDS011;62116;43.582;1.470;2023-03-04T00:29:11;45.42;;;21.85;;
65583;SDS011;62116;43.582;1.470;2023-03-04T00:31:37;47.90;;;22.02;;
65583;SDS011;62116;43.582;1.470;2023-03-04T00:34:02;44.00;;;21.77;;
65583;SDS011;62116;43.582;1.470;2023-03-04T00:36:28;45.05;;;21.50;;
65583;SDS011;62116;43.582;1.470;2023-03-04T00:38:53;42.63;;;21.33;;
65583;SDS011;62116;43.582;1.470;2023-03-04T00:41:18;45.25;;;21.98;;
65583;SDS011;62116;43.582;1.470;2023-03-04T00:43:44;43.83;;;21.60;;
65583;SDS011;62116;43.582;1.470;2023-03-04T00:46:09;44.58;;;21.08;;
65583;SDS011;62116;43.582;1.470;2023-03-04T00:48:34;43.42;;;21.23;;
65583;SDS011;62116;43.582;1.470;2023-03-04T00:51:00;46.03;;;21.80;;
65583;SDS011;62116;43.582;1.470;2023-03-04T00:53:25;44.30;;;22.63;;
65583;SDS011;62116;43.582;1.470;2023-03-04T00:55:51;46.78;;;21.25;;
65583;SDS011;62116;43.582;1.470;2023-03-04T00:58:16;44.13;;;21.45;;
65583;SDS011;62116;43.582;1.470;2023-03-04T01:00:41;43.70;;;21.70;;
65583;SDS011;62116;43.582;1.470;2023-03-04T01:03:07;45.10;;;21.23;;
65583;SDS011;62116;43.582;1.470;2023-03-04T01:05:32;42.90;;;21.60;;
65583;SDS011;62116;43.582;1.470;2023-03-04T01:08:00;45.60;;;21.83;;
65583;SDS011;62116;43.582;1.470;2023-03-04T01:10:25;41.90;;;21.35;;
65583;SDS011;62116;43.582;1.470;2023-03-04T01:12:51;42.92;;;21.90;;
65583;SDS011;62116;43.582;1.470;2023-03-04T01:15:16;43.72;;;21.10;;
65583;SDS011;62116;43.582;1.470;2023-03-04T01:17:42;45.55;;;21.38;;
65583;SDS011;62116;43.582;1.470;2023-03-04T01:20:07;46.80;;;21.63;;
65583;SDS011;62116;43.582;1.470;2023-03-04T01:22:33;41.10;;;21.20;;
65583;SDS011;62116;43.582;1.470;2023-03-04T01:24:59;42.47;;;21.65;;
65583;SDS011;62116;43.582;1.470;2023-03-04T01:27:24;43.50;;;21.23;;
65583;SDS011;62116;43.582;1.470;2023-03-04T01:29:50;46.20;;;20.92;;
65583;SDS011;62116;43.582;1.470;2023-03-04T01:32:15;44.20;;;21.35;;
65583;SDS011;62116;43.582;1.470;2023-03-04T01:34:41;44.63;;;21.75;;
65583;SDS011;62116;43.582;1.470;2023-03-04T01:37:06;44.83;;;21.55;;
65583;SDS011;62116;43.582;1.470;2023-03-04T01:39:33;42.10;;;21.98;;
65583;SDS011;62116;43.582;1.470;2023-03-04T01:41:59;47.00;;;22.15;;
65583;SDS011;62116;43.582;1.470;2023-03-04T01:44:24;44.88;;;21.23;;
65583;SDS011;62116;43.582;1.470;2023-03-04T01:46:51;45.00;;;21.02;;
65583;SDS011;62116;43.582;1.470;2023-03-04T01:49:18;44.33;;;21.05;;
65583;SDS011;62116;43.582;1.470;2023-03-04T01:51:46;45.58;;;20.63;;
65583;SDS011;62116;43.582;1.470;2023-03-04T01:54:14;43.28;;;21.63;;
65583;SDS011;62116;43.582;1.470;2023-03-04T01:56:43;47.90;;;21.73;;
65583;SDS011;62116;43.582;1.470;2023-03-04T01:59:12;43.05;;;21.42;;
65583;SDS011;62116;43.582;1.470;2023-03-04T02:01:37;46.67;;;21.15;;
65583;SDS011;62116;43.582;1.470;2023-03-04T02:04:04;43.25;;;21.27;;
65583;SDS011;62116;43.582;1.470;2023-03-04T02:06:31;45.03;;;21.58;;
65583;SDS011;62116;43.582;1.470;2023-03-04T02:08:58;42.95;;;21.10;;
65583;SDS011;62116;43.582;1.470;2023-03-04T02:11:23;44.78;;;21.40;;
65583;SDS011;62116;43.582;1.470;2023-03-04T02:13:49;42.28;;;20.88;;
65583;SDS011;62116;43.582;1.470;2023-03-04T02:16:16;42.38;;;21.02;;
65583;SDS011;62116;43.582;1.470;2023-03-04T02:18:41;46.00;;;20.63;;
65583;SDS011;62116;43.582;1.470;2023-03-04T02:21:23;42.80;;;21.13;;
65583;SDS011;62116;43.582;1.470;2023-03-04T02:26:23;44.20;;;20.75;;
65583;SDS011;62116;43.582;1.470;2023-03-04T02:28:51;42.70;;;19.98;;
65583;SDS011;62116;43.582;1.470;2023-03-04T02:34:04;44.90;;;21.02;;
65583;SDS011;62116;43.582;1.470;2023-03-04T02:36:51;44.17;;;20.02;;
65583;SDS011;62116;43.582;1.470;2023-03-04T02:41:54;41.65;;;20.73;;
65583;SDS011;62116;43.582;1.470;2023-03-04T02:44:21;44.60;;;20.88;;
65583;SDS011;62116;43.582;1.470;2023-03-04T02:46:51;42.10;;;19.52;;
65583;SDS011;62116;43.582;1.470;2023-03-04T02:49:17;42.72;;;20.75;;
65583;SDS011;62116;43.582;1.470;2023-03-04T02:51:44;44.75;;;21.48;;
65583;SDS011;62116;43.582;1.470;2023-03-04T02:54:16;48.25;;;21.02;;
65583;SDS011;62116;43.582;1.470;2023-03-04T02:56:47;44.95;;;20.83;;
65583;SDS011;62116;43.582;1.470;2023-03-04T02:59:14;39.85;;;20.35;;
65583;SDS011;62116;43.582;1.470;2023-03-04T03:01:40;43.80;;;21.27;;
65583;SDS011;62116;43.582;1.470;2023-03-04T03:04:05;43.20;;;20.38;;
65583;SDS011;62116;43.582;1.470;2023-03-04T03:06:30;44.05;;;21.50;;
65583;SDS011;62116;43.582;1.470;2023-03-04T03:08:56;45.00;;;20.45;;
65583;SDS011;62116;43.582;1.470;2023-03-04T03:11:21;43.75;;;21.10;;
65583;SDS011;62116;43.582;1.470;2023-03-04T03:13:47;37.65;;;19.10;;
65583;SDS011;62116;43.582;1.470;2023-03-04T03:16:12;43.17;;;20.05;;
65583;SDS011;62116;43.582;1.470;2023-03-04T03:18:37;42.53;;;20.13;;
65583;SDS011;62116;43.582;1.470;2023-03-04T03:21:03;45.25;;;20.38;;
65583;SDS011;62116;43.582;1.470;2023-03-04T03:23:28;42.13;;;20.10;;
65583;SDS011;62116;43.582;1.470;2023-03-04T03:25:54;40.08;;;20.25;;
65583;SDS011;62116;43.582;1.470;2023-03-04T03:28:19;43.75;;;20.00;;
65583;SDS011;62116;43.582;1.470;2023-03-04T03:30:44;45.08;;;20.88;;
65583;SDS011;62116;43.582;1.470;2023-03-04T03:33:10;42.88;;;21.05;;
65583;SDS011;62116;43.582;1.470;2023-03-04T03:35:35;48.15;;;22.30;;
65583;SDS011;62116;43.582;1.470;2023-03-04T03:38:00;43.85;;;20.10;;
65583;SDS011;62116;43.582;1.470;2023-03-04T03:40:26;45.05;;;21.58;;
65583;SDS011;62116;43.582;1.470;2023-03-04T03:42:51;43.03;;;20.15;;
65583;SDS011;62116;43.582;1.470;2023-03-04T03:45:17;39.85;;;20.25;;
65583;SDS011;62116;43.582;1.470;2023-03-04T03:47:42;43.83;;;20.40;;
65583;SDS011;62116;43.582;1.470;2023-03-04T03:50:08;43.67;;;20.88;;
65583;SDS011;62116;43.582;1.470;2023-03-04T03:52:33;44.60;;;20.10;;
65583;SDS011;62116;43.582;1.470;2023-03-04T03:54:59;44.63;;;20.13;;
65583;SDS011;62116;43.582;1.470;2023-03-04T03:57:26;43.22;;;20.30;;
65583;SDS011;62116;43.582;1.470;2023-03-04T03:59:51;46.63;;;21.35;;
65583;SDS011;62116;43.582;1.470;2023-03-04T04:02:17;47.53;;;22.25;;
65583;SDS011;62116;43.582;1.470;2023-03-04T04:04:42;43.65;;;20.92;;
65583;SDS011;62116;43.582;1.470;2023-03-04T04:07:08;42.97;;;20.73;;
65583;SDS011;62116;43.582;1.470;2023-03-04T04:09:33;43.97;;;21.13;;
65583;SDS011;62116;43.582;1.470;2023-03-04T04:11:58;39.88;;;19.95;;
65583;SDS011;62116;43.582;1.470;2023-03-04T04:14:24;39.38;;;19.83;;
65583;SDS011;62116;43.582;1.470;2023-03-04T04:16:49;41.97;;;20.73;;
65583;SDS011;62116;43.582;1.470;2023-03-04T04:19:15;38.67;;;19.27;;
65583;SDS011;62116;43.582;1.470;2023-03-04T04:21:42;45.30;;;21.30;;
65583;SDS011;62116;43.582;1.470;2023-03-04T04:24:07;41.55;;;19.85;;
65583;SDS011;62116;43.582;1.470;2023-03-04T04:26:33;41.38;;;19.98;;
65583;SDS011;62116;43.582;1.470;2023-03-04T04:28:58;42.17;;;20.25;;
65583;SDS011;62116;43.582;1.470;2023-03-04T04:31:23;40.47;;;19.50;;
65583;SDS011;62116;43.582;1.470;2023-03-04T04:33:49;42.53;;;20.58;;
65583;SDS011;62116;43.582;1.470;2023-03-04T04:36:14;41.55;;;20.08;;
65583;SDS011;62116;43.582;1.470;2023-03-04T04:38:40;41.40;;;20.35;;
65583;SDS011;62116;43.582;1.470;2023-03-04T04:41:08;40.97;;;20.05;;
65583;SDS011;62116;43.582;1.470;2023-03-04T04:43:42;47.75;;;21.00;;
65583;SDS011;62116;43.582;1.470;2023-03-04T04:46:08;39.72;;;19.80;;
65583;SDS011;62116;43.582;1.470;2023-03-04T04:48:33;40.75;;;19.80;;
65583;SDS011;62116;43.582;1.470;2023-03-04T04:50:58;43.50;;;20.20;;
65583;SDS011;62116;43.582;1.470;2023-03-04T04:53:24;40.33;;;19.30;;
65583;SDS011;62116;43.582;1.470;2023-03-04T04:55:49;42.40;;;20.38;;
65583;SDS011;62116;43.582;1.470;2023-03-04T04:58:14;37.97;;;18.98;;
65583;SDS011;62116;43.582;1.470;2023-03-04T05:00:40;37.88;;;19.30;;
65583;SDS011;62116;43.582;1.470;2023-03-04T05:03:05;44.45;;;19.80;;
65583;SDS011;62116;43.582;1.470;2023-03-04T05:05:31;41.05;;;19.58;;
65583;SDS011;62116;43.582;1.470;2023-03-04T05:07:56;40.92;;;19.42;;
65583;SDS011;62116;43.582;1.470;2023-03-04T05:10:21;41.25;;;19.48;;
65583;SDS011;62116;43.582;1.470;2023-03-04T05:12:47;41.80;;;19.58;;
65583;SDS011;62116;43.582;1.470;2023-03-04T05:15:13;42.28;;;19.55;;
65583;SDS011;62116;43.582;1.470;2023-03-04T05:17:39;40.30;;;19.50;;
65583;SDS011;62116;43.582;1.470;2023-03-04T05:20:04;45.47;;;19.23;;
65583;SDS011;62116;43.582;1.470;2023-03-04T05:22:31;41.17;;;19.48;;
65583;SDS011;62116;43.582;1.470;2023-03-04T05:24:56;42.15;;;19.83;;
65583;SDS011;62116;43.582;1.470;2023-03-04T05:27:22;41.00;;;19.92;;
65583;SDS011;62116;43.582;1.470;2023-03-04T05:29:47;39.72;;;19.48;;
65583;SDS011;62116;43.582;1.470;2023-03-04T05:32:16;40.88;;;18.77;;
65583;SDS011;62116;43.582;1.470;2023-03-04T05:34:41;41.60;;;19.30;;
65583;SDS011;62116;43.582;1.470;2023-03-04T05:37:07;39.25;;;19.17;;
65583;SDS011;62116;43.582;1.470;2023-03-04T05:39:32;40.08;;;19.77;;
65583;SDS011;62116;43.582;1.470;2023-03-04T05:41:57;41.65;;;18.67;;
65583;SDS011;62116;43.582;1.470;2023-03-04T05:44:23;40.10;;;19.10;;
65583;SDS011;62116;43.582;1.470;2023-03-04T05:46:48;42.60;;;19.73;;
65583;SDS011;62116;43.582;1.470;2023-03-04T05:49:13;41.47;;;19.17;;
65583;SDS011;62116;43.582;1.470;2023-03-04T05:51:39;40.28;;;18.70;;
65583;SDS011;62116;43.582;1.470;2023-03-04T05:54:04;41.13;;;19.65;;
65583;SDS011;62116;43.582;1.470;2023-03-04T05:56:30;39.13;;;19.15;;
65583;SDS011;62116;43.582;1.470;2023-03-04T05:58:57;40.38;;;18.98;;
65583;SDS011;62116;43.582;1.470;2023-03-04T06:01:23;46.97;;;18.98;;
65583;SDS011;62116;43.582;1.470;2023-03-04T06:03:49;38.28;;;18.23;;
65583;SDS011;62116;43.582;1.470;2023-03-04T06:06:14;41.95;;;19.35;;
65583;SDS011;62116;43.582;1.470;2023-03-04T06:08:40;38.97;;;18.13;;
65583;SDS011;62116;43.582;1.470;2023-03-04T06:11:05;38.13;;;19.25;;
65583;SDS011;62116;43.582;1.470;2023-03-04T06:13:31;40.10;;;18.25;;
65583;SDS011;62116;43.582;1.470;2023-03-04T06:15:57;39.20;;;18.63;;
65583;SDS011;62116;43.582;1.470;2023-03-04T06:18:23;36.42;;;18.20;;
65583;SDS011;62116;43.582;1.470;2023-03-04T06:20:49;37.13;;;18.27;;
65583;SDS011;62116;43.582;1.470;2023-03-04T06:23:15;36.58;;;17.88;;
65583;SDS011;62116;43.582;1.470;2023-03-04T06:25:41;37.63;;;18.05;;
65583;SDS011;62116;43.582;1.470;2023-03-04T06:28:06;36.45;;;18.38;;
65583;SDS011;62116;43.582;1.470;2023-03-04T06:30:32;38.35;;;18.10;;
65583;SDS011;62116;43.582;1.470;2023-03-04T06:32:58;38.83;;;18.60;;
65583;SDS011;62116;43.582;1.470;2023-03-04T06:35:23;37.30;;;18.70;;
65583;SDS011;62116;43.582;1.470;2023-03-04T06:37:49;37.22;;;18.17;;
65583;SDS011;62116;43.582;1.470;2023-03-04T06:40:14;39.88;;;18.60;;
65583;SDS011;62116;43.582;1.470;2023-03-04T06:42:40;37.47;;;17.90;;
65583;SDS011;62116;43.582;1.470;2023-03-04T06:45:06;36.00;;;17.90;;
65583;SDS011;62116;43.582;1.470;2023-03-04T06:47:32;33.22;;;17.67;;
65583;SDS011;62116;43.582;1.470;2023-03-04T06:49:57;35.92;;;18.23;;
65583;SDS011;62116;43.582;1.470;2023-03-04T06:52:23;37.92;;;18.30;;
65583;SDS011;62116;43.582;1.470;2023-03-04T06:54:48;38.97;;;18.15;;
65583;SDS011;62116;43.582;1.470;2023-03-04T06:57:14;37.28;;;17.92;;
65583;SDS011;62116;43.582;1.470;2023-03-04T06:59:39;35.55;;;17.88;;
65583;SDS011;62116;43.582;1.470;2023-03-04T07:02:05;34.83;;;18.35;;
65583;SDS011;62116;43.582;1.470;2023-03-04T07:04:31;36.78;;;17.85;;
65583;SDS011;62116;43.582;1.470;2023-03-04T07:06:56;38.25;;;18.23;;
65583;SDS011;62116;43.582;1.470;2023-03-04T07:09:22;36.78;;;18.40;;
65583;SDS011;62116;43.582;1.470;2023-03-04T07:11:47;34.35;;;17.42;;
65583;SDS011;62116;43.582;1.470;2023-03-04T07:14:12;39.28;;;18.30;;
65583;SDS011;62116;43.582;1.470;2023-03-04T07:16:38;35.92;;;18.45;;
65583;SDS011;62116;43.582;1.470;2023-03-04T07:19:04;39.03;;;18.63;;
65583;SDS011;62116;43.582;1.470;2023-03-04T07:21:29;35.05;;;17.83;;
65583;SDS011;62116;43.582;1.470;2023-03-04T07:23:55;38.40;;;18.33;;
65583;SDS011;62116;43.582;1.470;2023-03-04T07:26:20;37.08;;;18.90;;
65583;SDS011;62116;43.582;1.470;2023-03-04T07:28:46;37.38;;;18.00;;
65583;SDS011;62116;43.582;1.470;2023-03-04T07:31:13;37.85;;;18.90;;
65583;SDS011;62116;43.582;1.470;2023-03-04T07:33:47;35.75;;;17.83;;
65583;SDS011;62116;43.582;1.470;2023-03-04T07:36:13;40.65;;;18.48;;
65583;SDS011;62116;43.582;1.470;2023-03-04T07:38:44;40.13;;;19.42;;
65583;SDS011;62116;43.582;1.470;2023-03-04T07:41:10;38.40;;;19.77;;
65583;SDS011;62116;43.582;1.470;2023-03-04T07:43:36;38.47;;;19.20;;
65583;SDS011;62116;43.582;1.470;2023-03-04T07:46:01;39.55;;;18.90;;
65583;SDS011;62116;43.582;1.470;2023-03-04T07:48:27;40.03;;;19.65;;
65583;SDS011;62116;43.582;1.470;2023-03-04T07:53:50;37.70;;;19.42;;
65583;SDS011;62116;43.582;1.470;2023-03-04T07:56:18;46.30;;;19.48;;
65583;SDS011;62116;43.582;1.470;2023-03-04T07:58:46;39.03;;;19.90;;
65583;SDS011;62116;43.582;1.470;2023-03-04T08:01:14;39.83;;;18.92;;
65583;SDS011;62116;43.582;1.470;2023-03-04T08:03:41;42.83;;;20.30;;
65583;SDS011;62116;43.582;1.470;2023-03-04T08:06:07;40.00;;;19.77;;
65583;SDS011;62116;43.582;1.470;2023-03-04T08:08:34;40.75;;;20.50;;
65583;SDS011;62116;43.582;1.470;2023-03-04T08:11:02;39.20;;;19.65;;
65583;SDS011;62116;43.582;1.470;2023-03-04T08:13:28;39.53;;;19.70;;
65583;SDS011;62116;43.582;1.470;2023-03-04T08:15:54;38.05;;;18.95;;
65583;SDS011;62116;43.582;1.470;2023-03-04T08:18:20;40.22;;;20.35;;
65583;SDS011;62116;43.582;1.470;2023-03-04T08:20:46;38.63;;;19.25;;
65583;SDS011;62116;43.582;1.470;2023-03-04T08:23:11;37.75;;;18.58;;
65583;SDS011;62116;43.582;1.470;2023-03-04T08:25:40;43.60;;;19.58;;
65583;SDS011;62116;43.582;1.470;2023-03-04T08:28:06;39.13;;;19.02;;
65583;SDS011;62116;43.582;1.470;2023-03-04T08:30:33;33.65;;;18.38;;
65583;SDS011;62116;43.582;1.470;2023-03-04T08:32:59;41.72;;;19.50;;
65583;SDS011;62116;43.582;1.470;2023-03-04T08:35:26;40.53;;;19.58;;
65583;SDS011;62116;43.582;1.470;2023-03-04T08:37:51;39.60;;;19.58;;
65583;SDS011;62116;43.582;1.470;2023-03-04T08:40:17;36.13;;;18.83;;
65583;SDS011;62116;43.582;1.470;2023-03-04T08:42:42;38.28;;;20.08;;
65583;SDS011;62116;43.582;1.470;2023-03-04T08:45:08;43.10;;;20.55;;
65583;SDS011;62116;43.582;1.470;2023-03-04T08:47:34;36.28;;;19.48;;
65583;SDS011;62116;43.582;1.470;2023-03-04T08:49:59;40.97;;;20.23;;
65583;SDS011;62116;43.582;1.470;2023-03-04T08:52:24;37.90;;;19.15;;
65583;SDS011;62116;43.582;1.470;2023-03-04T08:54:50;39.78;;;19.52;;
65583;SDS011;62116;43.582;1.470;2023-03-04T08:57:15;40.03;;;19.35;;
65583;SDS011;62116;43.582;1.470;2023-03-04T08:59:41;38.50;;;19.08;;
65583;SDS011;62116;43.582;1.470;2023-03-04T09:02:06;38.72;;;20.00;;
65583;SDS011;62116;43.582;1.470;2023-03-04T09:04:31;39.08;;;20.38;;
65583;SDS011;62116;43.582;1.470;2023-03-04T09:06:57;39.47;;;19.50;;
65583;SDS011;62116;43.582;1.470;2023-03-04T09:09:22;40.92;;;19.63;;
65583;SDS011;62116;43.582;1.470;2023-03-04T09:11:48;41.88;;;18.95;;
65583;SDS011;62116;43.582;1.470;2023-03-04T09:14:14;37.28;;;18.77;;
65583;SDS011;62116;43.582;1.470;2023-03-04T09:16:40;39.38;;;19.48;;
65583;SDS011;62116;43.582;1.470;2023-03-04T09:19:05;38.45;;;19.42;;
65583;SDS011;62116;43.582;1.470;2023-03-04T09:21:30;37.60;;;19.58;;
65583;SDS011;62116;43.582;1.470;2023-03-04T09:23:56;36.60;;;19.15;;
65583;SDS011;62116;43.582;1.470;2023-03-04T09:26:22;43.40;;;19.90;;
65583;SDS011;62116;43.582;1.470;2023-03-04T09:28:53;40.13;;;19.77;;
65583;SDS011;62116;43.582;1.470;2023-03-04T09:31:20;38.97;;;19.15;;
65583;SDS011;62116;43.582;1.470;2023-03-04T09:33:46;37.78;;;19.98;;
65583;SDS011;62116;43.582;1.470;2023-03-04T09:36:12;40.83;;;19.80;;
65583;SDS011;62116;43.582;1.470;2023-03-04T09:38:38;37.85;;;19.73;;
65583;SDS011;62116;43.582;1.470;2023-03-04T09:41:06;39.72;;;20.42;;
65583;SDS011;62116;43.582;1.470;2023-03-04T09:43:34;39.78;;;20.92;;
65583;SDS011;62116;43.582;1.470;2023-03-04T09:46:48;35.97;;;19.75;;
65583;SDS011;62116;43.582;1.470;2023-03-04T09:48:56;38.15;;;20.73;;
65583;SDS011;62116;43.582;1.470;2023-03-04T09:56:33;38.45;;;20.17;;
65583;SDS011;62116;43.582;1.470;2023-03-04T09:59:04;41.28;;;20.88;;
65583;SDS011;62116;43.582;1.470;2023-03-04T10:01:47;38.92;;;20.50;;
65583;SDS011;62116;43.582;1.470;2023-03-04T10:06:53;44.45;;;21.55;;
65583;SDS011;62116;43.582;1.470;2023-03-04T10:12:06;38.92;;;20.17;;
65583;SDS011;62116;43.582;1.470;2023-03-04T10:14:58;41.55;;;20.60;;
65583;SDS011;62116;43.582;1.470;2023-03-04T10:17:33;39.33;;;20.70;;
65583;SDS011;62116;43.582;1.470;2023-03-04T10:22:34;42.13;;;21.65;;
65583;SDS011;62116;43.582;1.470;2023-03-04T10:25:26;37.28;;;19.77;;
65583;SDS011;62116;43.582;1.470;2023-03-04T10:28:15;36.83;;;19.02;;
65583;SDS011;62116;43.582;1.470;2023-03-04T10:33:22;35.40;;;19.10;;
65583;SDS011;62116;43.582;1.470;2023-03-04T10:38:30;37.60;;;19.55;;
65583;SDS011;62116;43.582;1.470;2023-03-04T10:40:58;35.13;;;19.58;;
65583;SDS011;62116;43.582;1.470;2023-03-04T10:43:24;37.13;;;19.85;;
65583;SDS011;62116;43.582;1.470;2023-03-04T10:45:53;38.25;;;20.40;;
65583;SDS011;62116;43.582;1.470;2023-03-04T10:48:26;39.15;;;19.85;;
65583;SDS011;62116;43.582;1.470;2023-03-04T10:50:53;37.92;;;19.52;;
65583;SDS011;62116;43.582;1.470;2023-03-04T10:53:37;35.63;;;20.85;;
65583;SDS011;62116;43.582;1.470;2023-03-04T10:56:07;37.97;;;20.67;;
65583;SDS011;62116;43.582;1.470;2023-03-04T11:01:58;36.88;;;20.75;;
65583;SDS011;62116;43.582;1.470;2023-03-04T11:04:24;35.78;;;19.98;;
65583;SDS011;62116;43.582;1.470;2023-03-04T11:06:51;36.83;;;20.00;;
65583;SDS011;62116;43.582;1.470;2023-03-04T11:09:25;36.47;;;19.83;;
65583;SDS011;62116;43.582;1.470;2023-03-04T11:12:00;34.08;;;20.70;;
65583;SDS011;62116;43.582;1.470;2023-03-04T11:14:30;33.25;;;18.98;;
65583;SDS011;62116;43.582;1.470;2023-03-04T11:17:22;36.15;;;20.60;;
65583;SDS011;62116;43.582;1.470;2023-03-04T11:19:51;33.85;;;19.98;;
65583;SDS011;62116;43.582;1.470;2023-03-04T11:22:38;36.40;;;20.25;;
65583;SDS011;62116;43.582;1.470;2023-03-04T11:25:06;37.33;;;21.13;;
65583;SDS011;62116;43.582;1.470;2023-03-04T11:27:43;36.40;;;20.33;;
65583;SDS011;62116;43.582;1.470;2023-03-04T11:32:44;38.20;;;20.48;;
65583;SDS011;62116;43.582;1.470;2023-03-04T11:35:17;37.55;;;20.10;;
65583;SDS011;62116;43.582;1.470;2023-03-04T11:39:16;34.58;;;19.58;;
65583;SDS011;62116;43.582;1.470;2023-03-04T11:41:15;36.03;;;20.60;;
65583;SDS011;62116;43.582;1.470;2023-03-04T11:43:47;34.35;;;20.27;;
65583;SDS011;62116;43.582;1.470;2023-03-04T11:46:37;38.45;;;21.45;;
65583;SDS011;62116;43.582;1.470;2023-03-04T11:56:50;36.03;;;20.30;;
65583;SDS011;62116;43.582;1.470;2023-03-04T12:04:49;36.03;;;21.10;;
65583;SDS011;62116;43.582;1.470;2023-03-04T12:10:14;35.63;;;21.08;;
65583;SDS011;62116;43.582;1.470;2023-03-04T12:13:03;33.30;;;20.17;;
65583;SDS011;62116;43.582;1.470;2023-03-04T12:26:39;36.20;;;20.17;;
65583;SDS011;62116;43.582;1.470;2023-03-04T12:29:52;36.85;;;21.60;;
65583;SDS011;62116;43.582;1.470;2023-03-04T12:35:16;34.40;;;20.70;;
65583;SDS011;62116;43.582;1.470;2023-03-04T12:40:44;36.92;;;20.77;;
65583;SDS011;62116;43.582;1.470;2023-03-04T12:48:35;38.63;;;21.45;;
65583;SDS011;62116;43.582;1.470;2023-03-04T12:56:18;36.03;;;20.70;;
65583;SDS011;62116;43.582;1.470;2023-03-04T12:58:49;39.15;;;21.02;;
65583;SDS011;62116;43.582;1.470;2023-03-04T13:01:25;33.58;;;20.33;;
65583;SDS011;62116;43.582;1.470;2023-03-04T13:04:03;33.50;;;19.97;;
65583;SDS011;62116;43.582;1.470;2023-03-04T13:09:30;37.08;;;21.40;;
65583;SDS011;62116;43.582;1.470;2023-03-04T13:12:18;37.05;;;21.20;;
65583;SDS011;62116;43.582;1.470;2023-03-04T13:17:39;36.80;;;19.63;;
65583;SDS011;62116;43.582;1.470;2023-03-04T13:23:01;35.08;;;20.15;;
65583;SDS011;62116;43.582;1.470;2023-03-04T13:41:14;36.20;;;19.85;;
65583;SDS011;62116;43.582;1.470;2023-03-04T13:44:01;37.58;;;21.33;;
65583;SDS011;62116;43.582;1.470;2023-03-04T13:46:47;33.25;;;19.58;;
65583;SDS011;62116;43.582;1.470;2023-03-04T13:49:20;36.00;;;20.80;;
65583;SDS011;62116;43.582;1.470;2023-03-04T13:51:48;37.58;;;20.58;;
65583;SDS011;62116;43.582;1.470;2023-03-04T13:56:47;36.38;;;20.08;;
65583;SDS011;62116;43.582;1.470;2023-03-04T14:06:39;34.47;;;18.83;;
65583;SDS011;62116;43.582;1.470;2023-03-04T14:09:11;35.67;;;18.90;;
65583;SDS011;62116;43.582;1.470;2023-03-04T14:11:39;33.33;;;19.20;;
65583;SDS011;62116;43.582;1.470;2023-03-04T14:14:11;34.45;;;19.33;;
65583;SDS011;62116;43.582;1.470;2023-03-04T14:16:44;31.50;;;18.75;;
65583;SDS011;62116;43.582;1.470;2023-03-04T14:19:23;31.08;;;17.83;;
65583;SDS011;62116;43.582;1.470;2023-03-04T14:21:58;35.58;;;18.83;;
65583;SDS011;62116;43.582;1.470;2023-03-04T14:24:24;32.53;;;17.60;;
65583;SDS011;62116;43.582;1.470;2023-03-04T14:27:01;35.60;;;18.27;;
65583;SDS011;62116;43.582;1.470;2023-03-04T14:29:33;31.48;;;18.20;;
65583;SDS011;62116;43.582;1.470;2023-03-04T14:31:59;33.83;;;17.65;;
65583;SDS011;62116;43.582;1.470;2023-03-04T14:36:52;30.80;;;16.52;;
65583;SDS011;62116;43.582;1.470;2023-03-04T14:39:18;30.27;;;16.55;;
65583;SDS011;62116;43.582;1.470;2023-03-04T14:41:44;30.80;;;16.48;;
65583;SDS011;62116;43.582;1.470;2023-03-04T14:46:54;32.00;;;17.48;;
65583;SDS011;62116;43.582;1.470;2023-03-04T14:49:23;32.47;;;17.38;;
65583;SDS011;62116;43.582;1.470;2023-03-04T14:51:49;32.03;;;17.45;;
65583;SDS011;62116;43.582;1.470;2023-03-04T14:57:21;33.63;;;17.40;;
65583;SDS011;62116;43.582;1.470;2023-03-04T14:59:50;36.88;;;17.83;;
65583;SDS011;62116;43.582;1.470;2023-03-04T15:05:09;34.88;;;19.27;;
65583;SDS011;62116;43.582;1.470;2023-03-04T15:07:41;33.25;;;18.25;;
65583;SDS011;62116;43.582;1.470;2023-03-04T15:10:09;36.30;;;18.70;;
65583;SDS011;62116;43.582;1.470;2023-03-04T15:12:36;34.15;;;18.60;;
65583;SDS011;62116;43.582;1.470;2023-03-04T15:15:48;32.53;;;18.10;;
65583;SDS011;62116;43.582;1.470;2023-03-04T15:17:59;36.00;;;18.42;;
65583;SDS011;62116;43.582;1.470;2023-03-04T15:20:29;35.88;;;18.25;;
65583;SDS011;62116;43.582;1.470;2023-03-04T15:22:57;31.60;;;18.23;;
65583;SDS011;62116;43.582;1.470;2023-03-04T15:25:24;31.85;;;18.27;;
65583;SDS011;62116;43.582;1.470;2023-03-04T15:27:50;33.55;;;17.80;;
65583;SDS011;62116;43.582;1.470;2023-03-04T15:30:36;31.55;;;18.13;;
65583;SDS011;62116;43.582;1.470;2023-03-04T15:33:01;32.75;;;18.00;;
65583;SDS011;62116;43.582;1.470;2023-03-04T15:35:28;32.28;;;18.38;;
65583;SDS011;62116;43.582;1.470;2023-03-04T15:37:56;32.15;;;18.63;;
65583;SDS011;62116;43.582;1.470;2023-03-04T15:40:29;34.90;;;18.42;;
65583;SDS011;62116;43.582;1.470;2023-03-04T15:42:55;35.38;;;19.17;;
65583;SDS011;62116;43.582;1.470;2023-03-04T15:45:24;33.55;;;18.75;;
65583;SDS011;62116;43.582;1.470;2023-03-04T15:47:51;36.70;;;18.73;;
65583;SDS011;62116;43.582;1.470;2023-03-04T15:50:17;31.67;;;19.10;;
65583;SDS011;62116;43.582;1.470;2023-03-04T15:52:43;32.38;;;18.58;;
65583;SDS011;62116;43.582;1.470;2023-03-04T15:55:13;33.08;;;18.63;;
65583;SDS011;62116;43.582;1.470;2023-03-04T15:57:41;34.75;;;19.13;;
65583;SDS011;62116;43.582;1.470;2023-03-04T16:00:09;36.88;;;17.98;;
65583;SDS011;62116;43.582;1.470;2023-03-04T16:02:36;31.17;;;18.73;;
65583;SDS011;62116;43.582;1.470;2023-03-04T16:05:02;35.00;;;19.13;;
65583;SDS011;62116;43.582;1.470;2023-03-04T16:07:28;33.13;;;18.55;;
65583;SDS011;62116;43.582;1.470;2023-03-04T16:09:55;32.90;;;18.60;;
65583;SDS011;62116;43.582;1.470;2023-03-04T16:12:24;36.22;;;18.83;;
65583;SDS011;62116;43.582;1.470;2023-03-04T16:14:51;30.63;;;17.83;;
65583;SDS011;62116;43.582;1.470;2023-03-04T16:17:17;31.15;;;17.73;;
65583;SDS011;62116;43.582;1.470;2023-03-04T16:19:43;31.50;;;17.58;;
65583;SDS011;62116;43.582;1.470;2023-03-04T16:22:11;33.90;;;18.05;;
65583;SDS011;62116;43.582;1.470;2023-03-04T16:24:42;34.13;;;17.85;;
65583;SDS011;62116;43.582;1.470;2023-03-04T16:27:11;31.10;;;17.80;;
65583;SDS011;62116;43.582;1.470;2023-03-04T16:29:39;33.22;;;18.67;;